sensor_id;sensor_type;location;lat;lon;timestamp;P1;durP1;ratioP1;P2;durP2;ratioP2
66175;SDS011;52977;44.816;20.538;2023-06-10T00:00:42;11.93;;;6.80;;
66175;SDS011;52977;44.816;20.538;2023-06-10T00:03:08;9.85;;;6.20;;
66175;SDS011;52977;44.816;20.538;2023-06-10T00:05:34;10.02;;;6.65;;
66175;SDS011;52977;44.816;20.538;2023-06-10T00:08:01;11.05;;;6.47;;
66175;SDS011;52977;44.816;20.538;2023-06-10T00:10:32;10.35;;;6.55;;
66175;SDS011;52977;44.816;20.538;2023-06-10T00:13:04;11.90;;;6.38;;
66175;SDS011;52977;44.816;20.538;2023-06-10T00:15:33;10.65;;;6.90;;
66175;SDS011;52977;44.816;20.538;2023-06-10T00:18:01;14.15;;;7.55;;
66175;SDS011;52977;44.816;20.538;2023-06-10T00:20:29;12.27;;;7.28;;
66175;SDS011;52977;44.816;20.538;2023-06-10T00:22:57;10.57;;;7.10;;
66175;SDS011;52977;44.816;20.538;2023-06-10T00:25:25;12.82;;;7.15;;
66175;SDS011;52977;44.816;20.538;2023-06-10T00:27:51;13.60;;;7.15;;
66175;SDS011;52977;44.816;20.538;2023-06-10T00:30:17;14.25;;;7.32;;
66175;SDS011;52977;44.816;20.538;2023-06-10T00:32:44;15.40;;;8.43;;
66175;SDS011;52977;44.816;20.538;2023-06-10T00:35:10;14.05;;;7.93;;
66175;SDS011;52977;44.816;20.538;2023-06-10T00:37:36;11.48;;;7.45;;
66175;SDS011;52977;44.816;20.538;2023-06-10T00:40:03;15.07;;;8.00;;
66175;SDS011;52977;44.816;20.538;2023-06-10T00:42:31;16.15;;;8.18;;
66175;SDS011;52977;44.816;20.538;2023-06-10T00:44:57;13.20;;;8.38;;
66175;SDS011;52977;44.816;20.538;2023-06-10T00:47:23;13.95;;;7.72;;
66175;SDS011;52977;44.816;20.538;2023-06-10T00:49:51;14.02;;;7.80;;
66175;SDS011;52977;44.816;20.538;2023-06-10T00:52:17;13.93;;;8.32;;
66175;SDS011;52977;44.816;20.538;2023-06-10T00:54:45;16.58;;;8.35;;
66175;SDS011;52977;44.816;20.538;2023-06-10T00:57:14;15.23;;;8.77;;
66175;SDS011;52977;44.816;20.538;2023-06-10T00:59:40;14.38;;;9.40;;
66175;SDS011;52977;44.816;20.538;2023-06-10T01:02:08;14.32;;;8.60;;
66175;SDS011;52977;44.816;20.538;2023-06-10T01:04:34;12.32;;;6.88;;
66175;SDS011;52977;44.816;20.538;2023-06-10T01:07:09;11.77;;;6.05;;
66175;SDS011;52977;44.816;20.538;2023-06-10T01:15:02;12.35;;;6.57;;
66175;SDS011;52977;44.816;20.538;2023-06-10T01:17:29;10.90;;;6.20;;
66175;SDS011;52977;44.816;20.538;2023-06-10T01:19:56;9.40;;;5.55;;
66175;SDS011;52977;44.816;20.538;2023-06-10T01:22:25;13.70;;;5.93;;
66175;SDS011;52977;44.816;20.538;2023-06-10T01:24:57;9.93;;;6.18;;
66175;SDS011;52977;44.816;20.538;2023-06-10T01:27:26;12.10;;;6.35;;
66175;SDS011;52977;44.816;20.538;2023-06-10T01:29:59;9.95;;;5.90;;
66175;SDS011;52977;44.816;20.538;2023-06-10T01:32:34;13.88;;;6.35;;
66175;SDS011;52977;44.816;20.538;2023-06-10T01:35:06;13.77;;;6.75;;
66175;SDS011;52977;44.816;20.538;2023-06-10T01:37:36;11.23;;;7.03;;
66175;SDS011;52977;44.816;20.538;2023-06-10T01:40:05;13.82;;;7.50;;
66175;SDS011;52977;44.816;20.538;2023-06-10T01:42:34;15.50;;;8.10;;
66175;SDS011;52977;44.816;20.538;2023-06-10T01:45:00;13.50;;;8.30;;
66175;SDS011;52977;44.816;20.538;2023-06-10T01:47:26;13.73;;;8.60;;
66175;SDS011;52977;44.816;20.538;2023-06-10T01:49:51;14.30;;;7.93;;
66175;SDS011;52977;44.816;20.538;2023-06-10T01:52:17;14.75;;;8.50;;
66175;SDS011;52977;44.816;20.538;2023-06-10T01:54:43;13.15;;;8.27;;
66175;SDS011;52977;44.816;20.538;2023-06-10T01:57:09;13.35;;;8.20;;
66175;SDS011;52977;44.816;20.538;2023-06-10T01:59:36;15.30;;;8.35;;
66175;SDS011;52977;44.816;20.538;2023-06-10T02:02:04;17.80;;;9.05;;
66175;SDS011;52977;44.816;20.538;2023-06-10T02:04:31;17.08;;;8.50;;
66175;SDS011;52977;44.816;20.538;2023-06-10T02:06:59;14.52;;;8.52;;
66175;SDS011;52977;44.816;20.538;2023-06-10T02:09:30;15.85;;;9.35;;
66175;SDS011;52977;44.816;20.538;2023-06-10T02:11:57;13.98;;;8.80;;
66175;SDS011;52977;44.816;20.538;2023-06-10T02:14:23;16.02;;;9.10;;
66175;SDS011;52977;44.816;20.538;2023-06-10T02:16:49;15.63;;;9.27;;
66175;SDS011;52977;44.816;20.538;2023-06-10T02:19:17;14.88;;;8.35;;
66175;SDS011;52977;44.816;20.538;2023-06-10T02:21:43;15.45;;;9.30;;
66175;SDS011;52977;44.816;20.538;2023-06-10T02:24:09;13.68;;;9.25;;
66175;SDS011;52977;44.816;20.538;2023-06-10T02:26:35;14.52;;;9.05;;
66175;SDS011;52977;44.816;20.538;2023-06-10T02:29:01;16.60;;;8.73;;
66175;SDS011;52977;44.816;20.538;2023-06-10T02:31:29;16.67;;;9.50;;
66175;SDS011;52977;44.816;20.538;2023-06-10T02:33:55;16.05;;;9.15;;
66175;SDS011;52977;44.816;20.538;2023-06-10T02:36:22;14.85;;;9.30;;
66175;SDS011;52977;44.816;20.538;2023-06-10T02:38:49;16.92;;;9.75;;
66175;SDS011;52977;44.816;20.538;2023-06-10T02:41:16;15.20;;;9.02;;
66175;SDS011;52977;44.816;20.538;2023-06-10T02:43:43;16.50;;;9.52;;
66175;SDS011;52977;44.816;20.538;2023-06-10T02:46:09;15.32;;;8.93;;
66175;SDS011;52977;44.816;20.538;2023-06-10T02:48:42;15.70;;;9.93;;
66175;SDS011;52977;44.816;20.538;2023-06-10T02:51:11;16.20;;;9.38;;
66175;SDS011;52977;44.816;20.538;2023-06-10T02:53:41;15.98;;;8.73;;
66175;SDS011;52977;44.816;20.538;2023-06-10T02:56:10;16.20;;;8.27;;
66175;SDS011;52977;44.816;20.538;2023-06-10T02:58:37;13.43;;;7.28;;
66175;SDS011;52977;44.816;20.538;2023-06-10T03:01:05;12.88;;;7.68;;
66175;SDS011;52977;44.816;20.538;2023-06-10T03:03:56;12.55;;;7.80;;
66175;SDS011;52977;44.816;20.538;2023-06-10T03:06:23;13.30;;;8.05;;
66175;SDS011;52977;44.816;20.538;2023-06-10T03:08:53;17.42;;;8.27;;
66175;SDS011;52977;44.816;20.538;2023-06-10T03:11:20;15.48;;;8.30;;
66175;SDS011;52977;44.816;20.538;2023-06-10T03:13:47;12.95;;;7.80;;
66175;SDS011;52977;44.816;20.538;2023-06-10T03:16:16;14.90;;;8.73;;
66175;SDS011;52977;44.816;20.538;2023-06-10T03:18:43;16.75;;;8.60;;
66175;SDS011;52977;44.816;20.538;2023-06-10T03:21:09;13.02;;;8.45;;
66175;SDS011;52977;44.816;20.538;2023-06-10T03:23:36;15.63;;;9.07;;
66175;SDS011;52977;44.816;20.538;2023-06-10T03:26:04;14.90;;;8.52;;
66175;SDS011;52977;44.816;20.538;2023-06-10T03:28:32;14.27;;;7.95;;
66175;SDS011;52977;44.816;20.538;2023-06-10T03:30:58;12.73;;;7.97;;
66175;SDS011;52977;44.816;20.538;2023-06-10T03:33:25;10.75;;;7.60;;
66175;SDS011;52977;44.816;20.538;2023-06-10T03:35:51;17.52;;;9.10;;
66175;SDS011;52977;44.816;20.538;2023-06-10T03:38:17;16.02;;;8.57;;
66175;SDS011;52977;44.816;20.538;2023-06-10T03:40:43;12.30;;;7.05;;
66175;SDS011;52977;44.816;20.538;2023-06-10T03:43:09;15.90;;;8.18;;
66175;SDS011;52977;44.816;20.538;2023-06-10T03:45:35;17.83;;;9.75;;
66175;SDS011;52977;44.816;20.538;2023-06-10T03:48:01;14.85;;;8.55;;
66175;SDS011;52977;44.816;20.538;2023-06-10T03:50:38;18.15;;;8.13;;
66175;SDS011;52977;44.816;20.538;2023-06-10T03:53:04;14.82;;;8.15;;
66175;SDS011;52977;44.816;20.538;2023-06-10T03:55:31;15.50;;;7.88;;
66175;SDS011;52977;44.816;20.538;2023-06-10T03:57:58;16.42;;;8.40;;
66175;SDS011;52977;44.816;20.538;2023-06-10T04:00:25;13.95;;;8.20;;
66175;SDS011;52977;44.816;20.538;2023-06-10T04:02:51;15.48;;;8.23;;
66175;SDS011;52977;44.816;20.538;2023-06-10T04:05:33;14.25;;;8.18;;
66175;SDS011;52977;44.816;20.538;2023-06-10T04:07:59;21.55;;;9.43;;
66175;SDS011;52977;44.816;20.538;2023-06-10T04:10:27;19.15;;;10.85;;
66175;SDS011;52977;44.816;20.538;2023-06-10T04:12:53;19.10;;;9.77;;
66175;SDS011;52977;44.816;20.538;2023-06-10T04:15:21;16.92;;;9.75;;
66175;SDS011;52977;44.816;20.538;2023-06-10T04:17:47;19.45;;;10.65;;
66175;SDS011;52977;44.816;20.538;2023-06-10T04:20:16;23.13;;;12.30;;
66175;SDS011;52977;44.816;20.538;2023-06-10T04:22:45;17.38;;;10.70;;
66175;SDS011;52977;44.816;20.538;2023-06-10T04:25:11;17.00;;;10.02;;
66175;SDS011;52977;44.816;20.538;2023-06-10T04:27:38;15.57;;;9.15;;
66175;SDS011;52977;44.816;20.538;2023-06-10T04:30:04;16.48;;;9.30;;
66175;SDS011;52977;44.816;20.538;2023-06-10T04:32:32;18.83;;;8.73;;
66175;SDS011;52977;44.816;20.538;2023-06-10T04:34:59;17.73;;;9.00;;
66175;SDS011;52977;44.816;20.538;2023-06-10T04:37:26;15.15;;;8.57;;
66175;SDS011;52977;44.816;20.538;2023-06-10T04:39:51;13.70;;;7.25;;
66175;SDS011;52977;44.816;20.538;2023-06-10T04:42:17;11.18;;;6.78;;
66175;SDS011;52977;44.816;20.538;2023-06-10T04:44:43;13.63;;;7.05;;
66175;SDS011;52977;44.816;20.538;2023-06-10T04:47:09;11.30;;;6.60;;
66175;SDS011;52977;44.816;20.538;2023-06-10T04:49:35;13.13;;;7.25;;
66175;SDS011;52977;44.816;20.538;2023-06-10T04:52:01;13.18;;;6.60;;
66175;SDS011;52977;44.816;20.538;2023-06-10T04:56:57;11.88;;;7.50;;
66175;SDS011;52977;44.816;20.538;2023-06-10T04:59:23;12.98;;;7.07;;
66175;SDS011;52977;44.816;20.538;2023-06-10T05:01:49;12.90;;;7.10;;
66175;SDS011;52977;44.816;20.538;2023-06-10T05:04:14;16.05;;;8.00;;
66175;SDS011;52977;44.816;20.538;2023-06-10T05:06:40;17.40;;;8.35;;
66175;SDS011;52977;44.816;20.538;2023-06-10T05:09:06;17.58;;;8.50;;
66175;SDS011;52977;44.816;20.538;2023-06-10T05:11:33;15.48;;;7.50;;
66175;SDS011;52977;44.816;20.538;2023-06-10T05:13:59;14.80;;;8.13;;
66175;SDS011;52977;44.816;20.538;2023-06-10T05:16:25;15.38;;;8.18;;
66175;SDS011;52977;44.816;20.538;2023-06-10T05:18:50;16.80;;;8.98;;
66175;SDS011;52977;44.816;20.538;2023-06-10T05:21:17;29.45;;;15.35;;
66175;SDS011;52977;44.816;20.538;2023-06-10T05:23:42;16.23;;;8.82;;
66175;SDS011;52977;44.816;20.538;2023-06-10T05:26:08;15.40;;;8.02;;
66175;SDS011;52977;44.816;20.538;2023-06-10T05:28:34;19.05;;;10.25;;
66175;SDS011;52977;44.816;20.538;2023-06-10T05:30:59;14.18;;;7.43;;
66175;SDS011;52977;44.816;20.538;2023-06-10T05:33:25;14.82;;;8.18;;
66175;SDS011;52977;44.816;20.538;2023-06-10T05:35:50;12.02;;;6.70;;
66175;SDS011;52977;44.816;20.538;2023-06-10T05:38:16;13.25;;;7.68;;
66175;SDS011;52977;44.816;20.538;2023-06-10T05:40:42;12.10;;;6.78;;
66175;SDS011;52977;44.816;20.538;2023-06-10T05:43:07;13.40;;;6.25;;
66175;SDS011;52977;44.816;20.538;2023-06-10T05:45:34;14.35;;;7.22;;
66175;SDS011;52977;44.816;20.538;2023-06-10T05:48:00;13.02;;;7.13;;
66175;SDS011;52977;44.816;20.538;2023-06-10T05:50:25;13.10;;;7.10;;
66175;SDS011;52977;44.816;20.538;2023-06-10T05:52:51;10.98;;;6.25;;
66175;SDS011;52977;44.816;20.538;2023-06-10T05:55:18;14.98;;;6.78;;
66175;SDS011;52977;44.816;20.538;2023-06-10T05:57:44;16.02;;;6.47;;
66175;SDS011;52977;44.816;20.538;2023-06-10T06:00:10;12.98;;;5.95;;
66175;SDS011;52977;44.816;20.538;2023-06-10T06:02:39;14.98;;;5.85;;
66175;SDS011;52977;44.816;20.538;2023-06-10T06:05:04;10.70;;;5.32;;
66175;SDS011;52977;44.816;20.538;2023-06-10T06:07:30;8.48;;;4.60;;
66175;SDS011;52977;44.816;20.538;2023-06-10T06:09:56;9.38;;;4.30;;
66175;SDS011;52977;44.816;20.538;2023-06-10T06:12:22;9.02;;;4.70;;
66175;SDS011;52977;44.816;20.538;2023-06-10T06:14:47;8.35;;;4.40;;
66175;SDS011;52977;44.816;20.538;2023-06-10T06:17:14;5.68;;;3.30;;
66175;SDS011;52977;44.816;20.538;2023-06-10T06:19:40;5.93;;;3.55;;
66175;SDS011;52977;44.816;20.538;2023-06-10T06:22:05;6.50;;;3.50;;
66175;SDS011;52977;44.816;20.538;2023-06-10T06:24:31;7.55;;;3.90;;
66175;SDS011;52977;44.816;20.538;2023-06-10T06:26:56;6.63;;;3.50;;
66175;SDS011;52977;44.816;20.538;2023-06-10T06:29:22;6.45;;;3.53;;
66175;SDS011;52977;44.816;20.538;2023-06-10T06:31:47;7.10;;;3.53;;
66175;SDS011;52977;44.816;20.538;2023-06-10T06:34:13;8.13;;;3.90;;
66175;SDS011;52977;44.816;20.538;2023-06-10T06:36:39;7.43;;;3.95;;
66175;SDS011;52977;44.816;20.538;2023-06-10T06:39:06;5.93;;;3.58;;
66175;SDS011;52977;44.816;20.538;2023-06-10T06:41:32;8.90;;;3.50;;
66175;SDS011;52977;44.816;20.538;2023-06-10T06:43:59;8.02;;;3.90;;
66175;SDS011;52977;44.816;20.538;2023-06-10T06:46:35;7.65;;;3.70;;
66175;SDS011;52977;44.816;20.538;2023-06-10T06:49:02;6.25;;;3.63;;
66175;SDS011;52977;44.816;20.538;2023-06-10T06:51:28;8.40;;;3.50;;
66175;SDS011;52977;44.816;20.538;2023-06-10T06:53:55;5.95;;;3.50;;
66175;SDS011;52977;44.816;20.538;2023-06-10T06:56:24;9.02;;;3.55;;
66175;SDS011;52977;44.816;20.538;2023-06-10T06:58:52;6.25;;;3.72;;
66175;SDS011;52977;44.816;20.538;2023-06-10T07:01:18;6.05;;;3.17;;
66175;SDS011;52977;44.816;20.538;2023-06-10T07:03:44;5.05;;;2.90;;
66175;SDS011;52977;44.816;20.538;2023-06-10T07:06:10;7.35;;;2.50;;
66175;SDS011;52977;44.816;20.538;2023-06-10T07:08:37;3.92;;;2.05;;
66175;SDS011;52977;44.816;20.538;2023-06-10T07:11:03;4.28;;;2.50;;
66175;SDS011;52977;44.816;20.538;2023-06-10T07:13:29;4.70;;;2.05;;
66175;SDS011;52977;44.816;20.538;2023-06-10T07:15:55;6.97;;;2.25;;
66175;SDS011;52977;44.816;20.538;2023-06-10T07:18:21;4.53;;;2.38;;
66175;SDS011;52977;44.816;20.538;2023-06-10T07:20:48;6.07;;;2.40;;
66175;SDS011;52977;44.816;20.538;2023-06-10T07:23:14;5.07;;;2.10;;
66175;SDS011;52977;44.816;20.538;2023-06-10T07:25:40;4.10;;;1.80;;
66175;SDS011;52977;44.816;20.538;2023-06-10T07:28:07;4.38;;;2.20;;
66175;SDS011;52977;44.816;20.538;2023-06-10T07:30:33;4.30;;;2.42;;
66175;SDS011;52977;44.816;20.538;2023-06-10T07:32:59;4.65;;;2.85;;
66175;SDS011;52977;44.816;20.538;2023-06-10T07:35:26;4.68;;;2.45;;
66175;SDS011;52977;44.816;20.538;2023-06-10T07:37:52;6.40;;;3.58;;
66175;SDS011;52977;44.816;20.538;2023-06-10T07:40:18;7.25;;;4.05;;
66175;SDS011;52977;44.816;20.538;2023-06-10T07:42:43;7.15;;;3.70;;
66175;SDS011;52977;44.816;20.538;2023-06-10T07:45:09;6.60;;;3.60;;
66175;SDS011;52977;44.816;20.538;2023-06-10T07:47:35;5.15;;;3.42;;
66175;SDS011;52977;44.816;20.538;2023-06-10T07:50:01;7.72;;;3.10;;
66175;SDS011;52977;44.816;20.538;2023-06-10T07:52:27;7.65;;;4.22;;
66175;SDS011;52977;44.816;20.538;2023-06-10T07:54:56;7.22;;;3.22;;
66175;SDS011;52977;44.816;20.538;2023-06-10T07:57:29;5.30;;;3.08;;
66175;SDS011;52977;44.816;20.538;2023-06-10T07:59:56;12.13;;;6.38;;
66175;SDS011;52977;44.816;20.538;2023-06-10T08:02:25;5.75;;;3.30;;
66175;SDS011;52977;44.816;20.538;2023-06-10T08:04:51;9.75;;;4.40;;
66175;SDS011;52977;44.816;20.538;2023-06-10T08:07:16;6.28;;;3.20;;
66175;SDS011;52977;44.816;20.538;2023-06-10T08:09:43;6.78;;;2.85;;
66175;SDS011;52977;44.816;20.538;2023-06-10T08:12:08;7.10;;;3.00;;
66175;SDS011;52977;44.816;20.538;2023-06-10T08:14:38;7.47;;;3.00;;
66175;SDS011;52977;44.816;20.538;2023-06-10T08:17:03;5.82;;;2.80;;
66175;SDS011;52977;44.816;20.538;2023-06-10T08:19:31;5.05;;;2.33;;
66175;SDS011;52977;44.816;20.538;2023-06-10T08:21:57;4.05;;;2.28;;
66175;SDS011;52977;44.816;20.538;2023-06-10T08:24:23;4.68;;;2.25;;
66175;SDS011;52977;44.816;20.538;2023-06-10T08:26:48;4.80;;;2.20;;
66175;SDS011;52977;44.816;20.538;2023-06-10T08:29:14;5.25;;;2.65;;
66175;SDS011;52977;44.816;20.538;2023-06-10T08:31:43;6.93;;;2.78;;
66175;SDS011;52977;44.816;20.538;2023-06-10T08:34:09;4.82;;;2.47;;
66175;SDS011;52977;44.816;20.538;2023-06-10T08:36:35;7.05;;;2.80;;
66175;SDS011;52977;44.816;20.538;2023-06-10T08:39:01;5.38;;;2.92;;
66175;SDS011;52977;44.816;20.538;2023-06-10T08:41:28;6.95;;;2.90;;
66175;SDS011;52977;44.816;20.538;2023-06-10T08:44:17;7.78;;;3.92;;
66175;SDS011;52977;44.816;20.538;2023-06-10T08:46:52;6.32;;;3.00;;
66175;SDS011;52977;44.816;20.538;2023-06-10T08:49:21;7.82;;;2.90;;
66175;SDS011;52977;44.816;20.538;2023-06-10T08:51:50;7.80;;;3.47;;
66175;SDS011;52977;44.816;20.538;2023-06-10T08:54:18;5.95;;;2.92;;
66175;SDS011;52977;44.816;20.538;2023-06-10T08:56:48;6.90;;;2.72;;
66175;SDS011;52977;44.816;20.538;2023-06-10T08:59:35;5.20;;;3.08;;
66175;SDS011;52977;44.816;20.538;2023-06-10T09:02:03;4.78;;;2.50;;
66175;SDS011;52977;44.816;20.538;2023-06-10T09:04:36;5.28;;;2.65;;
66175;SDS011;52977;44.816;20.538;2023-06-10T09:07:02;6.82;;;4.15;;
66175;SDS011;52977;44.816;20.538;2023-06-10T09:09:30;8.60;;;3.47;;
66175;SDS011;52977;44.816;20.538;2023-06-10T09:11:58;6.93;;;3.60;;
66175;SDS011;52977;44.816;20.538;2023-06-10T09:14:25;5.47;;;3.20;;
66175;SDS011;52977;44.816;20.538;2023-06-10T09:16:52;5.75;;;2.88;;
66175;SDS011;52977;44.816;20.538;2023-06-10T09:19:23;5.35;;;2.72;;
66175;SDS011;52977;44.816;20.538;2023-06-10T09:21:54;10.13;;;5.18;;
66175;SDS011;52977;44.816;20.538;2023-06-10T09:24:23;16.20;;;7.97;;
66175;SDS011;52977;44.816;20.538;2023-06-10T09:26:50;7.53;;;2.63;;
66175;SDS011;52977;44.816;20.538;2023-06-10T09:29:27;7.65;;;4.25;;
66175;SDS011;52977;44.816;20.538;2023-06-10T09:31:53;8.50;;;3.10;;
66175;SDS011;52977;44.816;20.538;2023-06-10T09:34:24;6.30;;;3.60;;
66175;SDS011;52977;44.816;20.538;2023-06-10T09:36:51;6.72;;;3.67;;
66175;SDS011;52977;44.816;20.538;2023-06-10T09:39:17;5.47;;;2.90;;
66175;SDS011;52977;44.816;20.538;2023-06-10T09:41:45;6.15;;;2.90;;
66175;SDS011;52977;44.816;20.538;2023-06-10T09:44:14;5.38;;;2.83;;
66175;SDS011;52977;44.816;20.538;2023-06-10T09:46:45;5.75;;;2.65;;
66175;SDS011;52977;44.816;20.538;2023-06-10T09:49:13;4.65;;;2.70;;
66175;SDS011;52977;44.816;20.538;2023-06-10T09:52:00;7.40;;;2.67;;
66175;SDS011;52977;44.816;20.538;2023-06-10T09:54:24;4.97;;;3.03;;
66175;SDS011;52977;44.816;20.538;2023-06-10T09:56:57;5.65;;;2.90;;
66175;SDS011;52977;44.816;20.538;2023-06-10T09:59:28;5.50;;;3.05;;
66175;SDS011;52977;44.816;20.538;2023-06-10T10:01:57;6.10;;;3.22;;
66175;SDS011;52977;44.816;20.538;2023-06-10T10:04:25;6.63;;;2.80;;
66175;SDS011;52977;44.816;20.538;2023-06-10T10:06:52;5.25;;;2.97;;
66175;SDS011;52977;44.816;20.538;2023-06-10T10:09:18;5.50;;;2.90;;
66175;SDS011;52977;44.816;20.538;2023-06-10T10:11:44;5.25;;;2.75;;
66175;SDS011;52977;44.816;20.538;2023-06-10T10:14:11;8.95;;;5.05;;
66175;SDS011;52977;44.816;20.538;2023-06-10T10:16:40;5.45;;;2.55;;
66175;SDS011;52977;44.816;20.538;2023-06-10T10:19:10;4.63;;;2.70;;
66175;SDS011;52977;44.816;20.538;2023-06-10T10:21:52;5.65;;;2.45;;
66175;SDS011;52977;44.816;20.538;2023-06-10T10:24:24;6.65;;;2.90;;
66175;SDS011;52977;44.816;20.538;2023-06-10T10:26:57;4.95;;;2.30;;
66175;SDS011;52977;44.816;20.538;2023-06-10T10:29:24;5.05;;;2.47;;
66175;SDS011;52977;44.816;20.538;2023-06-10T10:31:56;6.22;;;2.45;;
66175;SDS011;52977;44.816;20.538;2023-06-10T10:37:27;4.10;;;2.00;;
66175;SDS011;52977;44.816;20.538;2023-06-10T10:39:54;5.40;;;2.30;;
66175;SDS011;52977;44.816;20.538;2023-06-10T10:42:21;3.72;;;2.00;;
66175;SDS011;52977;44.816;20.538;2023-06-10T10:44:47;4.50;;;2.15;;
66175;SDS011;52977;44.816;20.538;2023-06-10T10:47:16;4.82;;;2.30;;
66175;SDS011;52977;44.816;20.538;2023-06-10T10:49:51;5.47;;;2.90;;
66175;SDS011;52977;44.816;20.538;2023-06-10T10:52:19;4.65;;;2.35;;
66175;SDS011;52977;44.816;20.538;2023-06-10T10:54:45;5.47;;;2.90;;
66175;SDS011;52977;44.816;20.538;2023-06-10T10:57:13;5.82;;;2.10;;
66175;SDS011;52977;44.816;20.538;2023-06-10T10:59:58;3.80;;;2.00;;
66175;SDS011;52977;44.816;20.538;2023-06-10T11:05:00;3.97;;;2.10;;
66175;SDS011;52977;44.816;20.538;2023-06-10T11:07:30;3.60;;;1.90;;
66175;SDS011;52977;44.816;20.538;2023-06-10T11:12:50;5.30;;;2.05;;
66175;SDS011;52977;44.816;20.538;2023-06-10T11:15:18;3.63;;;1.77;;
66175;SDS011;52977;44.816;20.538;2023-06-10T11:18:08;4.93;;;1.45;;
66175;SDS011;52977;44.816;20.538;2023-06-10T11:25:51;3.05;;;1.73;;
66175;SDS011;52977;44.816;20.538;2023-06-10T11:28:35;3.30;;;1.73;;
66175;SDS011;52977;44.816;20.538;2023-06-10T11:31:01;2.80;;;1.70;;
66175;SDS011;52977;44.816;20.538;2023-06-10T11:33:27;3.42;;;1.70;;
66175;SDS011;52977;44.816;20.538;2023-06-10T11:35:54;5.22;;;2.70;;
66175;SDS011;52977;44.816;20.538;2023-06-10T11:38:21;7.15;;;2.95;;
66175;SDS011;52977;44.816;20.538;2023-06-10T11:40:48;7.28;;;3.58;;
66175;SDS011;52977;44.816;20.538;2023-06-10T11:43:18;3.75;;;2.03;;
66175;SDS011;52977;44.816;20.538;2023-06-10T11:45:45;4.85;;;2.38;;
66175;SDS011;52977;44.816;20.538;2023-06-10T11:48:12;4.70;;;2.55;;
66175;SDS011;52977;44.816;20.538;2023-06-10T11:50:39;3.95;;;2.25;;
66175;SDS011;52977;44.816;20.538;2023-06-10T11:53:07;3.78;;;1.90;;
66175;SDS011;52977;44.816;20.538;2023-06-10T11:55:47;4.15;;;2.10;;
66175;SDS011;52977;44.816;20.538;2023-06-10T11:58:18;4.80;;;2.05;;
66175;SDS011;52977;44.816;20.538;2023-06-10T12:00:49;4.38;;;2.25;;
66175;SDS011;52977;44.816;20.538;2023-06-10T12:03:17;4.97;;;2.00;;
66175;SDS011;52977;44.816;20.538;2023-06-10T12:05:59;3.08;;;1.70;;
66175;SDS011;52977;44.816;20.538;2023-06-10T12:08:26;5.68;;;2.30;;
66175;SDS011;52977;44.816;20.538;2023-06-10T12:10:55;4.65;;;2.13;;
66175;SDS011;52977;44.816;20.538;2023-06-10T12:13:23;3.75;;;2.10;;
66175;SDS011;52977;44.816;20.538;2023-06-10T12:15:53;3.53;;;1.85;;
66175;SDS011;52977;44.816;20.538;2023-06-10T12:18:21;4.78;;;2.20;;
66175;SDS011;52977;44.816;20.538;2023-06-10T12:20:48;5.20;;;2.40;;
66175;SDS011;52977;44.816;20.538;2023-06-10T12:23:16;4.07;;;2.00;;
66175;SDS011;52977;44.816;20.538;2023-06-10T12:25:50;3.40;;;1.92;;
66175;SDS011;52977;44.816;20.538;2023-06-10T12:28:24;4.68;;;2.15;;
66175;SDS011;52977;44.816;20.538;2023-06-10T12:30:52;4.03;;;2.30;;
66175;SDS011;52977;44.816;20.538;2023-06-10T12:33:33;5.03;;;2.60;;
66175;SDS011;52977;44.816;20.538;2023-06-10T12:35:59;3.70;;;2.28;;
66175;SDS011;52977;44.816;20.538;2023-06-10T12:38:26;4.30;;;2.17;;
66175;SDS011;52977;44.816;20.538;2023-06-10T12:41:02;4.38;;;2.50;;
66175;SDS011;52977;44.816;20.538;2023-06-10T12:43:31;5.40;;;2.22;;
66175;SDS011;52977;44.816;20.538;2023-06-10T12:46:08;4.72;;;2.47;;
66175;SDS011;52977;44.816;20.538;2023-06-10T12:48:35;4.47;;;2.28;;
66175;SDS011;52977;44.816;20.538;2023-06-10T12:51:01;3.65;;;2.13;;
66175;SDS011;52977;44.816;20.538;2023-06-10T12:53:27;4.05;;;2.20;;
66175;SDS011;52977;44.816;20.538;2023-06-10T12:55:53;4.22;;;2.42;;
66175;SDS011;52977;44.816;20.538;2023-06-10T12:58:20;4.00;;;2.10;;
66175;SDS011;52977;44.816;20.538;2023-06-10T13:00:47;4.43;;;2.03;;
66175;SDS011;52977;44.816;20.538;2023-06-10T13:03:14;4.15;;;2.30;;
66175;SDS011;52977;44.816;20.538;2023-06-10T13:05:40;4.47;;;2.20;;
66175;SDS011;52977;44.816;20.538;2023-06-10T13:08:07;4.28;;;2.30;;
66175;SDS011;52977;44.816;20.538;2023-06-10T13:10:36;4.22;;;2.10;;
66175;SDS011;52977;44.816;20.538;2023-06-10T13:13:03;5.78;;;2.28;;
66175;SDS011;52977;44.816;20.538;2023-06-10T13:15:31;5.68;;;2.05;;
66175;SDS011;52977;44.816;20.538;2023-06-10T13:20:29;6.25;;;2.03;;
66175;SDS011;52977;44.816;20.538;2023-06-10T13:22:56;4.45;;;2.40;;
66175;SDS011;52977;44.816;20.538;2023-06-10T13:25:22;4.20;;;2.38;;
66175;SDS011;52977;44.816;20.538;2023-06-10T13:27:48;5.13;;;2.53;;
66175;SDS011;52977;44.816;20.538;2023-06-10T13:30:15;6.88;;;2.92;;
66175;SDS011;52977;44.816;20.538;2023-06-10T13:32:41;5.75;;;3.30;;
66175;SDS011;52977;44.816;20.538;2023-06-10T13:35:08;9.23;;;3.75;;
66175;SDS011;52977;44.816;20.538;2023-06-10T13:37:35;6.05;;;2.95;;
66175;SDS011;52977;44.816;20.538;2023-06-10T13:40:02;6.43;;;2.50;;
66175;SDS011;52977;44.816;20.538;2023-06-10T13:42:28;4.03;;;2.05;;
66175;SDS011;52977;44.816;20.538;2023-06-10T13:44:55;3.47;;;1.90;;
66175;SDS011;52977;44.816;20.538;2023-06-10T13:47:22;5.60;;;2.13;;
66175;SDS011;52977;44.816;20.538;2023-06-10T13:49:48;3.63;;;1.80;;
66175;SDS011;52977;44.816;20.538;2023-06-10T13:52:15;5.03;;;1.63;;
66175;SDS011;52977;44.816;20.538;2023-06-10T13:54:41;3.92;;;1.85;;
66175;SDS011;52977;44.816;20.538;2023-06-10T13:57:07;3.42;;;1.73;;
66175;SDS011;52977;44.816;20.538;2023-06-10T13:59:36;3.40;;;1.77;;
66175;SDS011;52977;44.816;20.538;2023-06-10T14:02:03;3.88;;;2.25;;
66175;SDS011;52977;44.816;20.538;2023-06-10T14:04:31;5.30;;;1.95;;
66175;SDS011;52977;44.816;20.538;2023-06-10T14:06:58;4.35;;;2.22;;
66175;SDS011;52977;44.816;20.538;2023-06-10T14:09:24;5.15;;;1.80;;
66175;SDS011;52977;44.816;20.538;2023-06-10T14:11:51;3.55;;;2.03;;
66175;SDS011;52977;44.816;20.538;2023-06-10T14:14:17;5.68;;;2.17;;
66175;SDS011;52977;44.816;20.538;2023-06-10T14:16:45;6.22;;;2.20;;
66175;SDS011;52977;44.816;20.538;2023-06-10T14:19:12;4.57;;;2.42;;
66175;SDS011;52977;44.816;20.538;2023-06-10T14:21:38;6.03;;;2.35;;
66175;SDS011;52977;44.816;20.538;2023-06-10T14:24:04;7.60;;;2.38;;
66175;SDS011;52977;44.816;20.538;2023-06-10T14:26:30;4.55;;;2.15;;
66175;SDS011;52977;44.816;20.538;2023-06-10T14:28:58;4.38;;;2.03;;
66175;SDS011;52977;44.816;20.538;2023-06-10T14:31:24;4.45;;;2.15;;
66175;SDS011;52977;44.816;20.538;2023-06-10T14:33:51;3.40;;;1.80;;
66175;SDS011;52977;44.816;20.538;2023-06-10T14:36:17;5.15;;;1.92;;
66175;SDS011;52977;44.816;20.538;2023-06-10T14:38:43;5.03;;;2.90;;
66175;SDS011;52977;44.816;20.538;2023-06-10T14:41:12;22.67;;;13.13;;
66175;SDS011;52977;44.816;20.538;2023-06-10T14:43:38;5.25;;;2.50;;
66175;SDS011;52977;44.816;20.538;2023-06-10T14:46:04;4.78;;;2.30;;
66175;SDS011;52977;44.816;20.538;2023-06-10T14:48:30;3.63;;;1.75;;
66175;SDS011;52977;44.816;20.538;2023-06-10T14:50:57;4.18;;;2.17;;
66175;SDS011;52977;44.816;20.538;2023-06-10T14:53:23;4.72;;;2.30;;
66175;SDS011;52977;44.816;20.538;2023-06-10T14:55:49;3.90;;;2.20;;